Nearby METAR Reports

 

KMTN - Baltimore/Martin, Maryland, USA
Distance from station: SSE 8mi, 13km
Updated: Mon, 28-Jul-2014 3:45pm EDT
Partly cloudy
Partly cloudy
 Wind from W
Wind: W 18 mph , 30 km/h, Gust: 16 mph , 26 km/h
Temperature: 82°F , 28°C
Heat Index: 82°F , 28°C
Dew Point: 57°F , 14°C
Humidity: 42%
Barometer: 29.65 inHg , 1004.1 hPa
Clouds: Partly cloudy
Visibility: 10 miles , 16 km
Cloud details: Partly cloudy 8000 ft
2014/07/28 19:45 KMTN 281945Z 28016G14KT 10SM SCT080 28/14 A2965
KDMH - Baltimore/Dwntwn, Maryland, USA
Distance from station: SW 12mi, 19km
Updated: Mon, 28-Jul-2014 3:54pm EDT

 
Temperature: 82°F , 28°C
Heat Index: 82°F , 28°C
Dew Point: 57°F , 14°C
Humidity: 42%
Barometer: 29.65 inHg , 1004.1 hPa
2014/07/28 19:54 KDMH 281954Z AUTO 28/14 A2965 RMK AO1 SLP041 T02830144
 
KBWI - Balto/Wash Intl, Maryland, USA
Distance from station: SSW 20mi, 33km
Updated: Mon, 28-Jul-2014 3:54pm EDT
Mostly cloudy
Mostly cloudy
 Wind from W
Wind: W 17 mph , 28 km/h, Gust: 28 mph , 44 km/h
Temperature: 84°F , 29°C
Dew Point: 55°F , 13°C
Humidity: 37%
Barometer: 29.65 inHg , 1004.1 hPa
Clouds: Mostly cloudy
Visibility: 10 miles , 16 km
Cloud details: Partly cloudy 6000 ft
Mostly cloudy 9500 ft
2014/07/28 19:54 KBWI 281954Z 26015G24KT 10SM SCT060 BKN095 29/13 A2965 RMK AO2 PK WND 27027/1916 SLP040 ACSL DSNT S-SW T02890133
KDMW - Carroll Cnty, Maryland, USA
Distance from station: WNW 30mi, 48km
Updated: Mon, 28-Jul-2014 4:10pm EDT
Mostly cloudy
Mostly cloudy
 Wind from WSW
Wind: WSW 10 mph , 17 km/h, Gust: 18 mph , 30 km/h
Temperature: 75°F , 24°C
Dew Point: 63°F , 17°C
Humidity: 65%
Barometer: 29.69 inHg , 1005.4 hPa
Clouds: Mostly cloudy
Visibility: 10 miles , 16 km
Cloud details: Mostly cloudy 5000 ft
Mostly cloudy 7000 ft
2014/07/28 20:10 KDMW 282010Z AUTO 25009G16KT 10SM BKN050 BKN070 24/17 A2969 RMK AO2
 
KNAK - Annapolis/Naval, Maryland, USA
Distance from station: S 30mi, 48km
Updated: Mon, 28-Jul-2014 3:54pm EDT
Few Clouds
Few Clouds
 Wind from W
Wind: W 12 mph , 19 km/h, Gust: 25 mph , 41 km/h
Temperature: 82°F , 28°C
Heat Index: 82°F , 28°C
Dew Point: 57°F , 14°C
Humidity: 42%
Barometer: 29.65 inHg , 1004.1 hPa
Clouds: Few Clouds
Visibility: 10 miles , 16 km
Cloud details: Few Clouds 6000 ft
2014/07/28 19:54 KNAK 281954Z AUTO 28010G22KT 260V320 10SM FEW060 28/14 A2965 RMK AO2 SLP043 T02830139
KW29 - Stevensville, Maryland, USA
Distance from station: SSE 31mi, 50km
Updated: Mon, 28-Jul-2014 4:10pm EDT

 Wind from W
Wind: W 12 mph , 19 km/h, Gust: 21 mph , 33 km/h
Temperature: 82°F , 28°C
Heat Index: 82°F , 28°C
Dew Point: 57°F , 14°C
Humidity: 42%
Barometer: 29.66 inHg , 1004.4 hPa
Visibility: 10 miles , 16 km
2014/07/28 20:10 KW29 282010Z AUTO 27010G18KT 10SM 28/14 A2966 RMK AO1
 
KCGS - College Park, Maryland, USA
Distance from station: SW 38mi, 61km
Updated: Mon, 28-Jul-2014 4:10pm EDT
Partly cloudy
Partly cloudy
 Wind from W
Wind: W 13 mph , 20 km/h, Gust: 26 mph , 43 km/h
Temperature: 82°F , 28°C
Heat Index: 81°F , 27°C
Dew Point: 55°F , 13°C
Humidity: 40%
Barometer: 29.68 inHg , 1005.1 hPa
Clouds: Partly cloudy
Visibility: 10 miles , 16 km
Cloud details: Partly cloudy 9500 ft
2014/07/28 20:10 KCGS 282010Z AUTO 27011G23KT 10SM SCT095 28/13 A2968 RMK AO1
KGAI - Gaithersburg, Maryland, USA
Distance from station: WSW 40mi, 65km
Updated: Mon, 28-Jul-2014 4:15pm EDT
Mostly cloudy
Mostly cloudy
 Wind from W
Wind: W 15 mph , 24 km/h, Gust: 24 mph , 39 km/h
Temperature: 75°F , 24°C
Dew Point: 57°F , 14°C
Humidity: 54%
Barometer: 29.74 inHg , 1007.1 hPa
Clouds: Mostly cloudy
Visibility: 10 miles , 16 km
Cloud details: Few Clouds 7000 ft
Mostly cloudy 9000 ft
2014/07/28 20:15 KGAI 282015Z AUTO 27013G21KT 10SM FEW070 BKN090 24/14 A2974 RMK AO1
 
KTHV - York, Pennsylvania, USA
Distance from station: NNW 40mi, 65km
Updated: Mon, 28-Jul-2014 3:53pm EDT
Overcast
Overcast
 Wind from W
Wind: W 8 mph , 13 km/h, Gust: 18 mph , 30 km/h
Temperature: 75°F , 24°C
Dew Point: 61°F , 16°C
Humidity: 61%
Barometer: 29.65 inHg , 1004.1 hPa
Clouds: Overcast
Visibility: 10 miles , 16 km
Cloud details: Mostly cloudy 6000 ft
Overcast 8500 ft
2014/07/28 19:53 KTHV 281953Z AUTO 28007G16KT 10SM BKN060 OVC085 24/16 A2965 RMK AO2 SLP039 T02440156
KFDK - Frederick, Maryland, USA
Distance from station: W 47mi, 75km
Updated: Mon, 28-Jul-2014 3:55pm EDT
Partly cloudy
Partly cloudy
 Wind from W
Wind: W 17 mph , 28 km/h
Temperature: 79°F , 26°C
Dew Point: 63°F , 17°C
Humidity: 58%
Barometer: 29.71 inHg , 1006.1 hPa
Clouds: Partly cloudy
Visibility: 10 miles , 16 km
Cloud details: Partly cloudy 7000 ft
2014/07/28 19:55 KFDK 281955Z 27015KT 10SM SCT070 26/17 A2971
 
KESN - Easton/Newnam, Maryland, USA
Distance from station: SSE 48mi, 78km
Updated: Mon, 28-Jul-2014 3:50pm EDT
Mostly cloudy
Mostly cloudy
 Wind from WNW
Wind: WNW 9 mph , 15 km/h
Temperature: 84°F , 29°C
Heat Index: 84°F , 29°C
Dew Point: 61°F , 16°C
Humidity: 45%
Barometer: 29.70 inHg , 1005.8 hPa
Clouds: Mostly cloudy
Visibility: 10 miles , 16 km
Cloud details: Partly cloudy 6000 ft
Mostly cloudy 9000 ft
2014/07/28 19:50 KESN 281950Z 29008KT 10SM SCT060 BKN090 29/16 A2970
KDCA - Washington/Natl, Washington D.c., USA
Distance from station: SW 49mi, 79km
Updated: Mon, 28-Jul-2014 3:52pm EDT
Partly cloudy
Partly cloudy
 Wind from W
Wind: W 13 mph , 20 km/h, Gust: 28 mph , 44 km/h
Temperature: 86°F , 30°C
Dew Point: 55°F , 13°C
Humidity: 35%
Barometer: 29.69 inHg , 1005.4 hPa
Clouds: Partly cloudy
Visibility: 10 miles , 16 km
Cloud details: Few Clouds 6000 ft
Partly cloudy 10000 ft
2014/07/28 19:52 KDCA 281952Z 28011G24KT 10SM FEW060 SCT100 30/13 A2969 RMK AO2 PK WND 26032/1928 SLP052 T03000133
 
KLNS - Lancaster, Pennsylvania, USA
Distance from station: N 49mi, 79km
Updated: Mon, 28-Jul-2014 3:53pm EDT
Few Clouds
Few Clouds
 Wind from WNW
Wind: WNW 15 mph , 24 km/h, Gust: 29 mph , 46 km/h
Temperature: 79°F , 26°C
Dew Point: 59°F , 15°C
Humidity: 51%
Barometer: 29.63 inHg , 1003.4 hPa
Clouds: Few Clouds
Visibility: 10 miles , 16 km
Cloud details: Few Clouds 6000 ft
2014/07/28 19:53 KLNS 281953Z 29013G25KT 10SM FEW060 26/15 A2963 RMK AO2 PK WND 29027/1911 SLP029 T02610150
KILG - Wilmington, Delaware, USA
Distance from station: ENE 50mi, 81km
Updated: Mon, 28-Jul-2014 3:51pm EDT
Mostly cloudy
Mostly cloudy
 Wind from W
Wind: W 16 mph , 26 km/h, Gust: 22 mph , 35 km/h
Temperature: 82°F , 28°C
Heat Index: 82°F , 28°C
Dew Point: 61°F , 16°C
Humidity: 48%
Barometer: 29.63 inHg , 1003.4 hPa
Clouds: Mostly cloudy
Visibility: 10 miles , 16 km
Cloud details: Partly cloudy 5000 ft
Mostly cloudy 6500 ft
2014/07/28 19:51 KILG 281951Z 28014G19KT 10SM SCT050 BKN065 28/16 A2963 RMK AO2 SLP031 T02780161